createdAt,value
2022-10-24T00:01:17.711Z,67.46
2022-10-24T00:03:45.314Z,67.42
2022-10-24T00:06:13.814Z,67.33
2022-10-24T00:08:43.004Z,67.45
2022-10-24T00:11:12.765Z,67.54
2022-10-24T00:13:40.081Z,67.48
2022-10-24T00:16:07.512Z,67.59
2022-10-24T00:18:34.689Z,67.45
2022-10-24T00:21:01.562Z,67.48
2022-10-24T00:23:28.616Z,67.65
2022-10-24T00:25:55.500Z,67.50
2022-10-24T00:28:22.410Z,67.82
2022-10-24T00:30:52.869Z,67.68
2022-10-24T00:33:20.070Z,67.71
2022-10-24T00:35:47.328Z,67.85
2022-10-24T00:38:14.718Z,67.55
2022-10-24T00:40:41.877Z,67.72
2022-10-24T00:43:20.815Z,67.65
2022-10-24T00:45:51.420Z,67.82
2022-10-24T00:48:23.674Z,67.48
2022-10-24T00:50:54.541Z,67.72
2022-10-24T00:53:23.103Z,67.77
2022-10-24T00:55:53.193Z,67.64
2022-10-24T00:58:23.501Z,67.71
2022-10-24T01:00:50.512Z,67.62
2022-10-24T01:03:17.714Z,67.90
2022-10-24T01:06:05.992Z,67.94
2022-10-24T01:08:58.525Z,67.85
2022-10-24T01:12:03.017Z,67.81
2022-10-24T01:14:29.806Z,67.86
2022-10-24T01:17:37.085Z,67.82
2022-10-24T01:20:25.584Z,67.93
2022-10-24T01:23:14.992Z,67.83
2022-10-24T01:26:17.687Z,67.95
2022-10-24T01:29:17.067Z,67.87
2022-10-24T01:31:57.811Z,67.89
2022-10-24T01:34:31.269Z,67.95
2022-10-24T01:37:29.377Z,67.93
2022-10-24T01:40:07.071Z,67.98
2022-10-24T01:42:38.548Z,68.01
2022-10-24T01:45:07.540Z,67.99
2022-10-24T01:47:40.806Z,67.87
2022-10-24T01:50:11.978Z,68.04
2022-10-24T01:52:41.781Z,68.14
2022-10-24T01:55:09.529Z,68.02
2022-10-24T01:57:36.574Z,67.99
2022-10-24T02:00:06.803Z,68.02
2022-10-24T02:02:40.077Z,68.06
2022-10-24T02:05:36.772Z,68.26
2022-10-24T02:08:09.625Z,68.07
2022-10-24T02:10:44.023Z,68.14
2022-10-24T02:13:42.549Z,68.19
2022-10-24T02:16:10.090Z,68.29
2022-10-24T02:18:39.825Z,68.05
2022-10-24T02:21:28.874Z,68.22
2022-10-24T02:24:06.934Z,68.08
2022-10-24T02:26:41.319Z,68.07
2022-10-24T02:29:18.983Z,68.22
2022-10-24T02:31:53.745Z,68.30
2022-10-24T02:34:24.149Z,68.22
2022-10-24T02:36:55.000Z,68.20
2022-10-24T02:39:23.337Z,68.36
2022-10-24T02:41:54.919Z,68.09
2022-10-24T02:44:22.949Z,68.14
2022-10-24T02:46:53.099Z,68.44
2022-10-24T02:49:19.954Z,68.28
2022-10-24T02:51:48.316Z,68.42
2022-10-24T02:54:15.271Z,68.38
2022-10-24T02:56:48.035Z,68.38
2022-10-24T02:59:14.871Z,68.43
2022-10-24T03:01:41.752Z,68.26
2022-10-24T03:04:08.636Z,68.35
2022-10-24T03:06:35.895Z,68.33
2022-10-24T03:09:02.829Z,68.28
2022-10-24T03:11:29.680Z,68.22
2022-10-24T03:13:56.913Z,68.24
2022-10-24T03:16:23.729Z,68.43
2022-10-24T03:18:50.640Z,68.33
2022-10-24T03:21:17.456Z,68.27
2022-10-24T03:23:44.316Z,68.49
2022-10-24T03:26:11.076Z,68.30
2022-10-24T03:28:38.073Z,68.53
2022-10-24T03:31:05.595Z,68.38
2022-10-24T03:33:33.012Z,68.55
2022-10-24T03:36:00.150Z,68.56
2022-10-24T03:38:27.130Z,68.50
2022-10-24T03:40:54.101Z,68.34
2022-10-24T03:43:21.053Z,68.60
2022-10-24T03:45:48.012Z,68.37
2022-10-24T03:48:15.395Z,68.33
2022-10-24T03:50:42.480Z,68.38
2022-10-24T03:53:09.355Z,68.45
2022-10-24T03:55:36.359Z,68.32
2022-10-24T03:58:03.234Z,68.47
2022-10-24T04:00:30.178Z,68.42
2022-10-24T04:02:57.091Z,68.49
2022-10-24T04:05:23.925Z,68.29
2022-10-24T04:07:50.821Z,68.44
2022-10-24T04:10:17.848Z,68.51
2022-10-24T04:12:44.764Z,68.48
2022-10-24T04:15:11.839Z,68.33
2022-10-24T04:17:38.877Z,68.29
2022-10-24T04:20:06.587Z,68.51
2022-10-24T04:22:33.441Z,68.43
2022-10-24T04:25:00.328Z,68.36
2022-10-24T04:27:27.242Z,68.49
2022-10-24T04:29:54.108Z,68.46
2022-10-24T04:32:21.046Z,68.38
2022-10-24T04:34:48.035Z,68.50
2022-10-24T04:37:14.894Z,68.52
2022-10-24T04:39:41.737Z,68.76
2022-10-24T04:42:08.519Z,68.88
2022-10-24T04:44:35.341Z,69.03
2022-10-24T04:47:02.343Z,69.32
2022-10-24T04:49:29.159Z,69.28
2022-10-24T04:51:55.961Z,69.24
2022-10-24T04:54:22.909Z,69.37
2022-10-24T04:56:49.735Z,69.22
2022-10-24T04:59:16.605Z,69.15
2022-10-24T05:01:43.482Z,69.11
2022-10-24T05:04:10.528Z,68.88
2022-10-24T05:06:39.250Z,69.12
2022-10-24T05:09:08.298Z,69.33
2022-10-24T05:11:35.609Z,69.38
2022-10-24T05:14:02.432Z,69.11
2022-10-24T05:16:29.209Z,69.53
2022-10-24T05:18:55.989Z,69.67
2022-10-24T05:21:22.934Z,69.91
2022-10-24T05:23:49.874Z,70.10
2022-10-24T05:26:16.751Z,70.03
2022-10-24T05:28:43.664Z,70.24
2022-10-24T05:31:10.610Z,70.63
2022-10-24T05:33:37.457Z,70.77
2022-10-24T05:36:05.786Z,70.76
2022-10-24T05:38:32.635Z,70.76
2022-10-24T05:40:59.501Z,70.61
2022-10-24T05:43:26.295Z,70.44
2022-10-24T05:45:53.229Z,70.46
2022-10-24T05:48:20.074Z,70.53
2022-10-24T05:50:46.891Z,70.78
2022-10-24T05:53:13.743Z,70.74
2022-10-24T05:55:40.724Z,70.61
2022-10-24T05:58:08.116Z,70.41
2022-10-24T06:00:35.116Z,70.42
2022-10-24T06:03:02.153Z,70.31
2022-10-24T06:05:28.994Z,70.24
2022-10-24T06:07:55.835Z,70.26
2022-10-24T06:10:22.903Z,70.15
2022-10-24T06:12:49.809Z,70.01
2022-10-24T06:15:16.993Z,70.12
2022-10-24T06:17:43.925Z,70.14
2022-10-24T06:20:11.024Z,70.15
2022-10-24T06:22:38.247Z,70.16
2022-10-24T06:25:05.652Z,70.28
2022-10-24T06:27:32.571Z,70.20
2022-10-24T06:29:59.520Z,70.04
2022-10-24T06:32:26.464Z,69.95
2022-10-24T06:34:53.447Z,69.84
2022-10-24T06:37:20.305Z,69.71
2022-10-24T06:39:47.199Z,69.43
2022-10-24T06:42:14.615Z,69.61
2022-10-24T06:44:41.554Z,70.01
2022-10-24T06:47:08.465Z,70.11
2022-10-24T06:49:35.508Z,70.50
2022-10-24T06:52:02.587Z,70.47
2022-10-24T06:54:30.652Z,70.63
2022-10-24T06:56:57.899Z,70.64
2022-10-24T06:59:24.874Z,70.62
2022-10-24T07:01:51.932Z,70.58
2022-10-24T07:04:18.909Z,70.55
2022-10-24T07:06:46.233Z,70.63
2022-10-24T07:09:15.405Z,70.56
2022-10-24T07:11:43.432Z,70.50
2022-10-24T07:14:10.856Z,70.42
2022-10-24T07:16:38.463Z,70.62
2022-10-24T07:19:06.590Z,70.63
2022-10-24T07:21:34.474Z,70.58
2022-10-24T07:24:01.836Z,70.32
2022-10-24T07:26:29.940Z,70.69
2022-10-24T07:31:49.000Z,70.61
2022-10-24T07:34:16.225Z,70.63
2022-10-24T07:36:43.981Z,70.76
2022-10-24T07:39:12.339Z,70.83
2022-10-24T07:41:43.671Z,70.85
2022-10-24T07:44:11.462Z,70.73
2022-10-24T07:46:38.749Z,70.92
2022-10-24T07:49:05.790Z,70.72
2022-10-24T07:51:32.843Z,70.86
2022-10-24T07:54:00.114Z,70.66
2022-10-24T07:56:27.319Z,70.88
2022-10-24T07:58:56.527Z,71.04
2022-10-24T08:01:25.722Z,71.30
2022-10-24T08:03:52.780Z,71.15
2022-10-24T08:06:29.009Z,71.02
2022-10-24T08:08:56.348Z,70.92
2022-10-24T08:11:26.418Z,71.15
2022-10-24T08:13:57.673Z,70.87
2022-10-24T08:16:25.811Z,71.04
2022-10-24T08:18:56.137Z,71.10
2022-10-24T08:21:24.328Z,70.94
2022-10-24T08:23:54.026Z,71.00
2022-10-24T08:26:23.150Z,71.00
2022-10-24T08:28:51.001Z,71.04
2022-10-24T08:31:20.894Z,71.06
2022-10-24T08:33:48.954Z,71.04
2022-10-24T08:36:26.936Z,71.38
2022-10-24T08:38:55.157Z,71.20
2022-10-24T08:41:28.620Z,71.38
2022-10-24T08:43:58.291Z,71.33
2022-10-24T08:46:50.722Z,71.14
2022-10-24T08:49:41.907Z,71.37
2022-10-24T08:52:40.818Z,71.45
2022-10-24T08:55:44.310Z,71.18
2022-10-24T08:58:07.702Z,71.29
2022-10-24T09:00:42.292Z,71.36
2022-10-24T09:03:26.661Z,71.14
2022-10-24T09:06:16.910Z,71.48
2022-10-24T09:09:04.459Z,71.22
2022-10-24T09:11:45.864Z,71.48
2022-10-24T09:14:19.989Z,71.38
2022-10-24T09:16:52.805Z,71.49
2022-10-24T09:19:23.957Z,71.41
2022-10-24T09:21:52.682Z,71.19
2022-10-24T09:24:39.992Z,71.31
2022-10-24T09:30:18.376Z,71.21
2022-10-24T09:32:45.704Z,71.31
2022-10-24T09:35:19.701Z,71.17
2022-10-24T09:37:58.161Z,71.29
2022-10-24T09:40:26.755Z,71.49
2022-10-24T09:43:04.745Z,71.33
2022-10-24T09:46:02.271Z,71.25
2022-10-24T09:48:49.977Z,71.31
2022-10-24T09:51:35.382Z,71.24
2022-10-24T09:54:07.888Z,71.19
2022-10-24T09:56:42.657Z,70.98
2022-10-24T09:59:33.889Z,70.91
2022-10-24T10:02:23.685Z,70.90
2022-10-24T10:05:17.992Z,70.91
2022-10-24T10:07:49.065Z,70.75
2022-10-24T10:10:18.600Z,70.82
2022-10-24T10:12:48.634Z,70.79
2022-10-24T10:15:33.350Z,70.78
2022-10-24T10:18:03.105Z,70.85
2022-10-24T10:20:42.621Z,70.81
2022-10-24T10:23:29.858Z,70.73
2022-10-24T10:26:15.231Z,70.71
2022-10-24T10:28:46.307Z,70.89
2022-10-24T10:31:13.671Z,70.83
2022-10-24T10:33:47.504Z,70.71
2022-10-24T10:36:22.991Z,70.62
2022-10-24T10:39:45.057Z,70.52
2022-10-24T10:42:14.873Z,70.48
2022-10-24T10:45:37.706Z,70.49
2022-10-24T10:48:33.360Z,70.55
2022-10-24T10:51:21.136Z,70.52
2022-10-24T10:54:03.130Z,70.43
2022-10-24T10:56:56.240Z,70.55
2022-10-24T10:59:47.995Z,70.43
2022-10-24T11:02:57.193Z,70.54
2022-10-24T11:05:47.785Z,70.55
2022-10-24T11:08:20.591Z,70.50
2022-10-24T11:10:55.223Z,70.67
2022-10-24T11:13:34.982Z,70.61
2022-10-24T11:16:07.157Z,70.50
2022-10-24T11:18:42.725Z,70.75
2022-10-24T11:21:13.435Z,70.50
2022-10-24T11:23:52.632Z,70.39
2022-10-24T11:26:27.356Z,70.51
2022-10-24T11:28:59.948Z,70.53
2022-10-24T11:31:32.795Z,70.39
2022-10-24T11:34:11.942Z,70.47
2022-10-24T11:36:57.410Z,70.60
2022-10-24T11:39:27.140Z,70.50
2022-10-24T11:42:06.210Z,70.68
2022-10-24T11:44:50.263Z,70.54
2022-10-24T11:47:38.872Z,70.64
2022-10-24T11:50:06.068Z,70.60
2022-10-24T11:52:42.647Z,70.49
2022-10-24T11:55:24.370Z,70.59
2022-10-24T11:57:55.272Z,70.45
2022-10-24T12:00:31.210Z,70.52
2022-10-24T12:03:27.483Z,70.37
2022-10-24T12:06:25.163Z,70.51
2022-10-24T12:09:19.171Z,70.33
2022-10-24T12:12:07.099Z,70.42
2022-10-24T12:14:45.923Z,70.41
2022-10-24T12:17:34.540Z,70.49
2022-10-24T12:20:02.775Z,70.47
2022-10-24T12:22:36.706Z,70.53
2022-10-24T12:25:08.691Z,70.46
2022-10-24T12:27:39.819Z,70.32
2022-10-24T12:30:09.655Z,70.54
2022-10-24T12:32:46.751Z,70.52
2022-10-24T12:35:47.324Z,70.43
2022-10-24T12:38:34.377Z,70.43
2022-10-24T12:41:22.748Z,70.36
2022-10-24T12:43:50.113Z,70.49
2022-10-24T12:46:21.889Z,70.34
2022-10-24T12:48:59.656Z,70.47
2022-10-24T12:51:33.702Z,70.47
2022-10-24T12:54:04.370Z,70.50
2022-10-24T12:56:33.575Z,70.38
2022-10-24T12:59:20.853Z,70.30
2022-10-24T13:01:50.402Z,70.44
2022-10-24T13:04:57.402Z,70.27
2022-10-24T13:07:27.489Z,70.37
2022-10-24T13:10:10.409Z,70.40
2022-10-24T13:12:58.591Z,70.56
2022-10-24T13:16:13.151Z,70.29
2022-10-24T13:19:07.936Z,70.43
2022-10-24T13:21:48.499Z,70.68
2022-10-24T13:24:15.422Z,70.39
2022-10-24T13:26:56.311Z,70.37
2022-10-24T13:29:29.249Z,70.31
2022-10-24T13:32:18.778Z,70.43
2022-10-24T13:34:50.875Z,70.42
2022-10-24T13:37:23.974Z,70.34
2022-10-24T13:39:53.584Z,70.39
2022-10-24T13:42:25.719Z,70.42
2022-10-24T13:44:59.053Z,70.56
2022-10-24T13:47:41.010Z,70.37
2022-10-24T13:50:11.022Z,70.41
2022-10-24T13:52:49.480Z,70.45
2022-10-24T13:55:39.233Z,70.38
2022-10-24T13:58:06.288Z,70.51
2022-10-24T14:00:37.986Z,70.40
2022-10-24T14:03:12.911Z,70.27
2022-10-24T14:05:46.096Z,70.63
2022-10-24T14:08:30.854Z,70.33
2022-10-24T14:11:00.676Z,70.27
2022-10-24T14:13:30.251Z,70.46
2022-10-24T14:16:07.701Z,70.28
2022-10-24T14:18:37.391Z,70.36
2022-10-24T14:21:05.699Z,70.23
2022-10-24T14:23:41.022Z,70.39
2022-10-24T14:26:19.490Z,70.45
2022-10-24T14:28:50.905Z,70.36
2022-10-24T14:31:24.929Z,70.27
2022-10-24T14:33:55.182Z,70.28
2022-10-24T14:36:26.094Z,69.94
2022-10-24T14:38:59.129Z,70.50
2022-10-24T14:41:35.168Z,70.31
2022-10-24T14:44:03.076Z,70.42
2022-10-24T14:46:35.412Z,70.23
2022-10-24T14:49:21.769Z,70.52
2022-10-24T14:54:51.947Z,70.43
2022-10-24T14:57:21.707Z,70.48
2022-10-24T14:59:51.811Z,70.47
2022-10-24T15:02:24.281Z,70.61
2022-10-24T15:04:52.405Z,70.61
2022-10-24T15:07:38.114Z,70.53
2022-10-24T15:10:13.091Z,70.80
2022-10-24T15:12:46.976Z,70.77
2022-10-24T15:15:24.172Z,70.71
2022-10-24T15:17:54.325Z,70.82
2022-10-24T15:20:24.391Z,70.79
2022-10-24T15:22:55.283Z,70.80
2022-10-24T15:25:36.847Z,70.58
2022-10-24T15:28:06.943Z,70.89
2022-10-24T15:30:38.374Z,70.80
2022-10-24T15:33:08.151Z,70.74
2022-10-24T15:35:40.050Z,70.70
2022-10-24T15:38:19.002Z,70.56
2022-10-24T15:40:48.986Z,70.54
2022-10-24T15:43:20.084Z,70.51
2022-10-24T15:45:47.051Z,70.15
2022-10-24T15:48:14.018Z,69.90
2022-10-24T15:50:46.547Z,69.54
2022-10-24T15:53:22.960Z,69.24
2022-10-24T15:55:50.051Z,69.79
2022-10-24T15:58:18.503Z,69.58
2022-10-24T16:00:45.831Z,69.28
2022-10-24T16:03:17.675Z,69.27
2022-10-24T16:05:49.362Z,69.53
2022-10-24T16:08:19.181Z,69.65
2022-10-24T16:10:51.335Z,69.67
2022-10-24T16:13:20.856Z,69.87
2022-10-24T16:15:48.982Z,69.77
2022-10-24T16:18:16.113Z,69.77
2022-10-24T16:20:43.218Z,69.92
2022-10-24T16:23:14.218Z,70.09
2022-10-24T16:25:41.364Z,70.11
2022-10-24T16:28:08.533Z,70.25
2022-10-24T16:30:38.274Z,70.24
2022-10-24T16:33:06.126Z,70.17
2022-10-24T16:35:35.315Z,70.10
2022-10-24T16:38:03.732Z,70.22
2022-10-24T16:40:31.500Z,70.14
2022-10-24T16:42:59.708Z,70.40
2022-10-24T16:45:26.828Z,70.40
2022-10-24T16:47:53.768Z,70.40
2022-10-24T16:50:24.529Z,70.54
2022-10-24T16:53:07.074Z,70.66
2022-10-24T16:55:34.883Z,70.39
2022-10-24T16:58:01.925Z,70.62
2022-10-24T17:00:30.562Z,70.42
2022-10-24T17:02:58.908Z,70.41
2022-10-24T17:05:29.977Z,70.50
2022-10-24T17:07:58.940Z,70.53
2022-10-24T17:10:26.086Z,70.56
2022-10-24T17:12:53.415Z,70.56
2022-10-24T17:15:22.276Z,70.48
2022-10-24T17:17:50.365Z,70.27
2022-10-24T17:20:17.891Z,70.38
2022-10-24T17:22:46.788Z,70.32
2022-10-24T17:25:20.334Z,70.37
2022-10-24T17:27:48.065Z,70.38
2022-10-24T17:30:21.851Z,70.39
2022-10-24T17:32:49.638Z,70.31
2022-10-24T17:35:20.997Z,70.42
2022-10-24T17:37:47.907Z,70.37
2022-10-24T17:40:25.488Z,70.34
2022-10-24T17:42:52.867Z,70.05
2022-10-24T17:45:24.080Z,69.94
2022-10-24T17:47:51.524Z,69.85
2022-10-24T17:50:20.051Z,69.93
2022-10-24T17:52:51.365Z,69.97
2022-10-24T17:58:14.376Z,69.76
2022-10-24T18:00:41.594Z,69.88
2022-10-24T18:03:09.047Z,69.54
2022-10-24T18:05:38.647Z,69.61
2022-10-24T18:08:12.484Z,69.47
2022-10-24T18:10:41.736Z,69.32
2022-10-24T18:13:10.005Z,69.29
2022-10-24T18:15:38.199Z,69.38
2022-10-24T18:18:05.859Z,69.26
2022-10-24T18:20:33.304Z,69.18
2022-10-24T18:23:00.679Z,69.31
2022-10-24T18:25:28.808Z,69.26
2022-10-24T18:27:56.807Z,69.11
2022-10-24T18:30:24.090Z,69.22
2022-10-24T18:32:51.789Z,69.08
2022-10-24T18:35:19.002Z,68.88
2022-10-24T18:37:46.364Z,69.21
2022-10-24T18:40:14.714Z,68.95
2022-10-24T18:42:54.495Z,69.17
2022-10-24T18:45:24.596Z,69.35
2022-10-24T18:47:52.936Z,69.26
2022-10-24T18:50:22.774Z,69.35
2022-10-24T18:53:11.147Z,69.36
2022-10-24T18:55:39.241Z,69.14
2022-10-24T18:58:13.268Z,68.93
2022-10-24T19:00:42.597Z,68.69
2022-10-24T19:03:34.112Z,68.38
2022-10-24T19:06:20.117Z,68.54
2022-10-24T19:08:47.535Z,68.55
2022-10-24T19:11:15.847Z,68.77
2022-10-24T19:13:45.281Z,68.50
2022-10-24T19:16:19.611Z,68.50
2022-10-24T19:18:54.011Z,68.70
2022-10-24T19:21:21.763Z,68.60
2022-10-24T19:23:50.682Z,68.70
2022-10-24T19:26:17.955Z,68.48
2022-10-24T19:28:45.315Z,68.44
2022-10-24T19:31:15.381Z,68.44
2022-10-24T19:33:46.739Z,68.27
2022-10-24T19:36:19.069Z,68.01
2022-10-24T19:38:47.124Z,67.51
2022-10-24T19:41:14.351Z,66.88
2022-10-24T19:43:41.618Z,67.06
2022-10-24T19:46:19.905Z,66.96
2022-10-24T19:49:08.006Z,66.97
2022-10-24T19:51:35.530Z,66.75
2022-10-24T19:54:04.242Z,66.47
2022-10-24T19:56:32.003Z,66.38
2022-10-24T19:58:59.589Z,66.39
2022-10-24T20:01:30.337Z,66.22
2022-10-24T20:03:58.369Z,66.11
2022-10-24T20:06:28.770Z,66.05
2022-10-24T20:08:56.261Z,65.97
2022-10-24T20:11:23.507Z,66.06
2022-10-24T20:13:50.919Z,65.83
2022-10-24T20:16:18.311Z,65.69
2022-10-24T20:18:45.903Z,65.77
2022-10-24T20:21:16.654Z,66.12
2022-10-24T20:23:47.496Z,65.95
2022-10-24T20:26:21.144Z,66.10
2022-10-24T20:28:52.221Z,66.02
2022-10-24T20:31:20.654Z,65.95
2022-10-24T20:33:49.134Z,66.30
2022-10-24T20:36:18.872Z,65.91
2022-10-24T20:38:46.883Z,65.86
2022-10-24T20:41:14.322Z,65.87
2022-10-24T20:43:42.088Z,65.90
2022-10-24T20:46:11.108Z,65.66
2022-10-24T20:48:40.138Z,65.73
2022-10-24T20:51:16.446Z,65.72
2022-10-24T20:53:44.952Z,65.54
2022-10-24T20:56:23.623Z,65.63
2022-10-24T20:58:52.323Z,65.83
2022-10-24T21:01:25.635Z,65.82
2022-10-24T21:03:54.805Z,65.62
2022-10-24T21:06:30.783Z,64.69
2022-10-24T21:09:00.929Z,64.55
2022-10-24T21:11:30.682Z,64.76
2022-10-24T21:14:04.048Z,64.97
2022-10-24T21:16:32.063Z,64.72
2022-10-24T21:19:03.212Z,64.81
2022-10-24T21:21:33.253Z,65.05
2022-10-24T21:24:06.622Z,65.14
2022-10-24T21:26:40.481Z,65.07
2022-10-24T21:31:59.997Z,65.28
2022-10-24T21:34:31.615Z,65.16
2022-10-24T21:37:01.562Z,65.34
2022-10-24T21:39:29.472Z,65.36
2022-10-24T21:41:57.331Z,65.53
2022-10-24T21:44:24.589Z,65.48
2022-10-24T21:46:52.627Z,65.51
2022-10-24T21:49:21.040Z,65.62
2022-10-24T21:51:50.055Z,65.57
2022-10-24T21:54:26.181Z,65.74
2022-10-24T21:56:53.646Z,65.66
2022-10-24T21:59:22.545Z,65.84
2022-10-24T22:01:51.532Z,65.74
2022-10-24T22:04:24.136Z,65.73
2022-10-24T22:06:52.013Z,65.84
2022-10-24T22:09:24.306Z,65.96
2022-10-24T22:11:51.797Z,66.13
2022-10-24T22:14:19.264Z,66.08
2022-10-24T22:16:46.943Z,66.03
2022-10-24T22:19:14.586Z,66.00
2022-10-24T22:21:47.887Z,66.16
2022-10-24T22:24:21.819Z,66.24
2022-10-24T22:26:51.186Z,66.14
2022-10-24T22:29:23.355Z,66.30
2022-10-24T22:31:52.312Z,66.45
2022-10-24T22:34:22.834Z,66.27
2022-10-24T22:37:14.118Z,66.42
2022-10-24T22:39:41.379Z,66.46
2022-10-24T22:42:19.171Z,66.56
2022-10-24T22:44:48.320Z,66.54
2022-10-24T22:47:32.597Z,66.52
2022-10-24T22:50:36.687Z,66.59
2022-10-24T22:53:04.168Z,66.80
2022-10-24T22:56:12.889Z,66.81
2022-10-24T22:58:42.328Z,66.90
2022-10-24T23:01:21.904Z,66.84
2022-10-24T23:03:49.315Z,66.82
2022-10-24T23:06:27.301Z,67.07
2022-10-24T23:08:54.192Z,66.82
2022-10-24T23:11:21.424Z,67.07
2022-10-24T23:13:48.582Z,67.00
2022-10-24T23:16:22.988Z,67.03
2022-10-24T23:18:50.156Z,67.11
2022-10-24T23:21:29.033Z,67.09
2022-10-24T23:23:56.139Z,67.20
2022-10-24T23:26:55.997Z,67.25
2022-10-24T23:29:35.779Z,67.21
2022-10-24T23:32:04.453Z,67.13
2022-10-24T23:34:32.035Z,67.38
2022-10-24T23:37:03.201Z,67.33
2022-10-24T23:39:32.502Z,67.32
2022-10-24T23:42:00.740Z,67.31
2022-10-24T23:44:28.069Z,67.42
2022-10-24T23:47:13.420Z,67.33
2022-10-24T23:49:51.370Z,67.33
2022-10-24T23:52:29.134Z,67.33
2022-10-24T23:54:56.321Z,67.51
2022-10-24T23:57:23.477Z,67.39
2022-10-24T23:59:50.309Z,67.48
